Lynn Lake Airport
CYYL : now visible

Aeroporto :











RITROVATECI SU...

 
LOGIN :

Iscrizione | Disclaimer

   EN    FR    IT 

 









Sommario :    VFR   VFR Marginale   IFR   IFR Intensivo   IFR Molto Intensivo
Visibilità : 
Base nubi : 
>= 8 km
>= 3000ft
5 / 8 km
1000 / 3000 ft
1500m / 5 km
500 / 1000 ft
800 / 1500m
200 / 500 ft
< 800m
< 200 ft
Simboli :   Temporali  Nebbia  Neve Forte  Precipitazioni Forti  Vento > 20 kt






- Altitudine del aeroporto : 1170 ft
- Codice IATA : YYL


CYYL - Lynn Lake

ULTIMO METAR :
  • 070130Z AUTO 16003KT 5SM -SN BKN038 BKN070 OVC087 M20/M22 A2986 RMK SLP153

METARs OBSOLETI :
  • 070108Z AUTO 16003KT 5SM -SN FEW042 BKN080 OVC100 M21/M22 A2986 RMK SLP154
  • 070100Z AUTO 16002KT 9SM -SN FEW041 BKN075 BKN097 M21/M22 A2987 RMK PRESFR SLP155
  • 070000Z AUTO 24004KT 9SM OVC090 M20/M21 A2989 RMK SLP164
  • 062300Z AUTO 00000KT 9SM OVC090 M20/M21 A2990 RMK SLP166

TAF AMD TAF CYYL
Valido dal 07 a 01 ore il 07 a 13 ore UTC


070113Z 0701/0713 32008KT P6SM SCT020 OVC080
TEMPO 0701/0703 4SM -SN
FM070300 VRB03KT P6SM -SN OVC020
TEMPO 0703/0713 2SM -SN OVC008 RMK FCST BASED ON AUTO OBS. NXT FCST BY 070700Z



MetMap, La meteo Aeronautica in un colpo d'occhio ! - Copyright ORBIFLY Dicembre 2007 - Disclaimer

ORBIFLY MET'MAP TEAM :

Programmazione e sviluppo : Alexandra Zaïnal
Concezione : Baudouin d'Aumeries
Aiuto per la programmazione : Marc-Olivier Méhu
Supporto tecnico e logistico : Manuel Goepfert
Aiuto per la traduzione : Arnaldo La Scala

Contatto : metmap@orbifly.com




FONTI E CREDITI :

   NOAA       Earth
Advisory